sensor_id;sensor_type;location;lat;lon;timestamp;temperature;humidity
27619;DHT22;15039;50.830;4.730;2023-04-21T00:01:25;7.90;99.90
27619;DHT22;15039;50.830;4.730;2023-04-21T00:03:54;8.20;99.90
27619;DHT22;15039;50.830;4.730;2023-04-21T00:06:21;8.10;99.90
27619;DHT22;15039;50.830;4.730;2023-04-21T00:08:50;8.00;99.90
27619;DHT22;15039;50.830;4.730;2023-04-21T00:11:25;8.00;99.90
27619;DHT22;15039;50.830;4.730;2023-04-21T00:13:51;8.00;99.90
27619;DHT22;15039;50.830;4.730;2023-04-21T00:16:18;8.10;99.90
27619;DHT22;15039;50.830;4.730;2023-04-21T00:18:46;8.30;99.90
27619;DHT22;15039;50.830;4.730;2023-04-21T00:21:12;8.40;99.90
27619;DHT22;15039;50.830;4.730;2023-04-21T00:23:42;8.30;99.90
27619;DHT22;15039;50.830;4.730;2023-04-21T00:26:08;8.30;99.90
27619;DHT22;15039;50.830;4.730;2023-04-21T00:28:35;8.40;99.90
27619;DHT22;15039;50.830;4.730;2023-04-21T00:31:04;8.50;99.90
27619;DHT22;15039;50.830;4.730;2023-04-21T00:33:29;8.30;99.90
27619;DHT22;15039;50.830;4.730;2023-04-21T00:36:01;8.30;99.90
27619;DHT22;15039;50.830;4.730;2023-04-21T00:38:29;8.30;99.90
27619;DHT22;15039;50.830;4.730;2023-04-21T00:40:55;8.40;99.90
27619;DHT22;15039;50.830;4.730;2023-04-21T00:43:27;8.40;99.90
27619;DHT22;15039;50.830;4.730;2023-04-21T00:49:21;8.30;99.90
27619;DHT22;15039;50.830;4.730;2023-04-21T00:51:47;8.30;99.90
27619;DHT22;15039;50.830;4.730;2023-04-21T00:54:14;8.10;99.90
27619;DHT22;15039;50.830;4.730;2023-04-21T00:56:44;8.10;99.90
27619;DHT22;15039;50.830;4.730;2023-04-21T00:59:13;8.10;99.90
27619;DHT22;15039;50.830;4.730;2023-04-21T01:01:39;7.90;99.90
27619;DHT22;15039;50.830;4.730;2023-04-21T01:14:57;8.10;99.90
27619;DHT22;15039;50.830;4.730;2023-04-21T01:17:23;8.10;99.90
27619;DHT22;15039;50.830;4.730;2023-04-21T01:19:49;8.10;99.90
27619;DHT22;15039;50.830;4.730;2023-04-21T01:22:27;8.10;99.90
27619;DHT22;15039;50.830;4.730;2023-04-21T01:24:53;8.10;99.90
27619;DHT22;15039;50.830;4.730;2023-04-21T01:27:19;8.10;99.90
27619;DHT22;15039;50.830;4.730;2023-04-21T01:29:47;8.20;99.90
27619;DHT22;15039;50.830;4.730;2023-04-21T01:32:24;8.20;99.90
27619;DHT22;15039;50.830;4.730;2023-04-21T01:34:51;8.10;99.90
27619;DHT22;15039;50.830;4.730;2023-04-21T01:37:19;8.00;99.90
27619;DHT22;15039;50.830;4.730;2023-04-21T01:39:53;8.10;99.90
27619;DHT22;15039;50.830;4.730;2023-04-21T01:42:21;8.00;99.90
27619;DHT22;15039;50.830;4.730;2023-04-21T01:44:48;8.00;99.90
27619;DHT22;15039;50.830;4.730;2023-04-21T01:47:15;8.10;99.90
27619;DHT22;15039;50.830;4.730;2023-04-21T01:49:41;8.10;99.90
27619;DHT22;15039;50.830;4.730;2023-04-21T01:52:09;8.20;99.90
27619;DHT22;15039;50.830;4.730;2023-04-21T01:54:46;8.20;99.90
27619;DHT22;15039;50.830;4.730;2023-04-21T01:58:00;8.20;99.90
27619;DHT22;15039;50.830;4.730;2023-04-21T02:00:52;8.10;99.90
27619;DHT22;15039;50.830;4.730;2023-04-21T02:03:29;8.10;99.90
27619;DHT22;15039;50.830;4.730;2023-04-21T02:05:54;8.20;99.90
27619;DHT22;15039;50.830;4.730;2023-04-21T02:08:21;8.30;99.90
27619;DHT22;15039;50.830;4.730;2023-04-21T02:11:00;8.30;99.90
27619;DHT22;15039;50.830;4.730;2023-04-21T02:13:26;8.20;99.90
27619;DHT22;15039;50.830;4.730;2023-04-21T02:16:12;8.20;99.90
27619;DHT22;15039;50.830;4.730;2023-04-21T02:18:40;8.20;99.90
27619;DHT22;15039;50.830;4.730;2023-04-21T02:21:20;8.30;99.90
27619;DHT22;15039;50.830;4.730;2023-04-21T02:23:50;8.30;99.90
27619;DHT22;15039;50.830;4.730;2023-04-21T02:26:16;8.10;99.90
27619;DHT22;15039;50.830;4.730;2023-04-21T02:28:44;8.10;99.90
27619;DHT22;15039;50.830;4.730;2023-04-21T02:31:10;8.20;99.90
27619;DHT22;15039;50.830;4.730;2023-04-21T02:33:36;8.10;99.90
27619;DHT22;15039;50.830;4.730;2023-04-21T02:36:15;8.20;99.90
27619;DHT22;15039;50.830;4.730;2023-04-21T02:38:40;8.10;99.90
27619;DHT22;15039;50.830;4.730;2023-04-21T02:41:18;8.00;99.90
27619;DHT22;15039;50.830;4.730;2023-04-21T02:43:44;8.00;99.90
27619;DHT22;15039;50.830;4.730;2023-04-21T02:46:09;8.10;99.90
27619;DHT22;15039;50.830;4.730;2023-04-21T02:48:38;8.10;99.90
27619;DHT22;15039;50.830;4.730;2023-04-21T02:51:04;8.10;99.90
27619;DHT22;15039;50.830;4.730;2023-04-21T02:53:36;8.00;99.90
27619;DHT22;15039;50.830;4.730;2023-04-21T02:56:07;8.10;99.90
27619;DHT22;15039;50.830;4.730;2023-04-21T02:58:34;8.00;99.90
27619;DHT22;15039;50.830;4.730;2023-04-21T03:01:01;8.00;99.90
27619;DHT22;15039;50.830;4.730;2023-04-21T03:03:31;8.00;99.90
27619;DHT22;15039;50.830;4.730;2023-04-21T03:08:41;8.20;99.90
27619;DHT22;15039;50.830;4.730;2023-04-21T03:11:07;8.10;99.90
27619;DHT22;15039;50.830;4.730;2023-04-21T03:13:32;8.10;99.90
27619;DHT22;15039;50.830;4.730;2023-04-21T03:16:01;8.10;99.90
27619;DHT22;15039;50.830;4.730;2023-04-21T03:18:26;8.10;99.90
27619;DHT22;15039;50.830;4.730;2023-04-21T03:20:58;8.10;99.90
27619;DHT22;15039;50.830;4.730;2023-04-21T03:23:25;8.20;99.90
27619;DHT22;15039;50.830;4.730;2023-04-21T03:25:51;8.20;99.90
27619;DHT22;15039;50.830;4.730;2023-04-21T03:28:16;8.00;99.90
27619;DHT22;15039;50.830;4.730;2023-04-21T03:30:42;8.10;99.90
27619;DHT22;15039;50.830;4.730;2023-04-21T03:33:07;8.00;99.90
27619;DHT22;15039;50.830;4.730;2023-04-21T03:35:35;7.80;99.90
27619;DHT22;15039;50.830;4.730;2023-04-21T03:38:00;7.90;99.90
27619;DHT22;15039;50.830;4.730;2023-04-21T03:40:27;7.80;99.90
27619;DHT22;15039;50.830;4.730;2023-04-21T03:42:54;7.70;99.90
27619;DHT22;15039;50.830;4.730;2023-04-21T03:45:20;7.80;99.90
27619;DHT22;15039;50.830;4.730;2023-04-21T03:47:51;7.60;99.90
27619;DHT22;15039;50.830;4.730;2023-04-21T03:50:17;7.50;99.90
27619;DHT22;15039;50.830;4.730;2023-04-21T03:52:46;7.50;99.90
27619;DHT22;15039;50.830;4.730;2023-04-21T03:55:11;7.50;99.90
27619;DHT22;15039;50.830;4.730;2023-04-21T03:57:43;7.30;99.90
27619;DHT22;15039;50.830;4.730;2023-04-21T04:00:09;7.40;99.90
27619;DHT22;15039;50.830;4.730;2023-04-21T04:02:36;7.30;99.90
27619;DHT22;15039;50.830;4.730;2023-04-21T04:05:03;7.30;99.90
27619;DHT22;15039;50.830;4.730;2023-04-21T04:07:35;7.20;99.90
27619;DHT22;15039;50.830;4.730;2023-04-21T04:10:01;7.30;99.90
27619;DHT22;15039;50.830;4.730;2023-04-21T04:12:27;7.30;99.90
27619;DHT22;15039;50.830;4.730;2023-04-21T04:14:52;7.10;99.90
27619;DHT22;15039;50.830;4.730;2023-04-21T04:17:33;7.00;99.90
27619;DHT22;15039;50.830;4.730;2023-04-21T04:19:59;7.00;99.90
27619;DHT22;15039;50.830;4.730;2023-04-21T04:22:32;6.90;99.90
27619;DHT22;15039;50.830;4.730;2023-04-21T04:25:09;6.80;99.90
27619;DHT22;15039;50.830;4.730;2023-04-21T04:27:44;7.00;99.90
27619;DHT22;15039;50.830;4.730;2023-04-21T04:30:15;6.90;99.90
27619;DHT22;15039;50.830;4.730;2023-04-21T04:32:41;6.80;99.90
27619;DHT22;15039;50.830;4.730;2023-04-21T04:35:08;6.80;99.90
27619;DHT22;15039;50.830;4.730;2023-04-21T04:37:37;6.90;99.90
27619;DHT22;15039;50.830;4.730;2023-04-21T04:40:06;6.90;99.90
27619;DHT22;15039;50.830;4.730;2023-04-21T04:42:42;6.90;99.90
27619;DHT22;15039;50.830;4.730;2023-04-21T04:45:09;6.80;99.90
27619;DHT22;15039;50.830;4.730;2023-04-21T04:47:44;6.90;99.90
27619;DHT22;15039;50.830;4.730;2023-04-21T04:50:14;7.00;99.90
27619;DHT22;15039;50.830;4.730;2023-04-21T04:52:40;6.90;99.90
27619;DHT22;15039;50.830;4.730;2023-04-21T04:55:15;6.80;99.90
27619;DHT22;15039;50.830;4.730;2023-04-21T04:57:43;6.60;99.90
27619;DHT22;15039;50.830;4.730;2023-04-21T05:00:09;6.60;99.90
27619;DHT22;15039;50.830;4.730;2023-04-21T05:02:42;6.60;99.90
27619;DHT22;15039;50.830;4.730;2023-04-21T05:05:08;6.60;99.90
27619;DHT22;15039;50.830;4.730;2023-04-21T05:07:50;6.60;99.90
27619;DHT22;15039;50.830;4.730;2023-04-21T05:10:18;6.80;99.90
27619;DHT22;15039;50.830;4.730;2023-04-21T05:12:48;6.80;99.90
27619;DHT22;15039;50.830;4.730;2023-04-21T05:15:15;6.70;99.90
27619;DHT22;15039;50.830;4.730;2023-04-21T05:17:41;6.70;99.90
27619;DHT22;15039;50.830;4.730;2023-04-21T05:20:09;6.60;99.90
27619;DHT22;15039;50.830;4.730;2023-04-21T05:22:38;6.80;99.90
27619;DHT22;15039;50.830;4.730;2023-04-21T05:25:08;6.80;99.90
27619;DHT22;15039;50.830;4.730;2023-04-21T05:27:35;6.80;99.90
27619;DHT22;15039;50.830;4.730;2023-04-21T05:30:08;6.70;99.90
27619;DHT22;15039;50.830;4.730;2023-04-21T05:32:34;6.70;99.90
27619;DHT22;15039;50.830;4.730;2023-04-21T05:34:59;6.70;99.90
27619;DHT22;15039;50.830;4.730;2023-04-21T05:37:25;6.70;99.90
27619;DHT22;15039;50.830;4.730;2023-04-21T05:39:51;6.70;99.90
27619;DHT22;15039;50.830;4.730;2023-04-21T05:42:17;6.70;99.90
27619;DHT22;15039;50.830;4.730;2023-04-21T05:44:43;6.60;99.90
27619;DHT22;15039;50.830;4.730;2023-04-21T05:47:12;6.70;99.90
27619;DHT22;15039;50.830;4.730;2023-04-21T05:49:37;6.90;99.90
27619;DHT22;15039;50.830;4.730;2023-04-21T05:52:04;6.90;99.90
27619;DHT22;15039;50.830;4.730;2023-04-21T05:54:31;6.90;99.90
27619;DHT22;15039;50.830;4.730;2023-04-21T05:56:57;6.90;99.90
27619;DHT22;15039;50.830;4.730;2023-04-21T05:59:23;7.00;99.90
27619;DHT22;15039;50.830;4.730;2023-04-21T06:01:50;7.10;99.90
27619;DHT22;15039;50.830;4.730;2023-04-21T06:04:16;7.10;99.90
27619;DHT22;15039;50.830;4.730;2023-04-21T06:06:42;7.10;99.90
27619;DHT22;15039;50.830;4.730;2023-04-21T06:09:08;7.30;99.90
27619;DHT22;15039;50.830;4.730;2023-04-21T06:11:34;7.30;99.90
27619;DHT22;15039;50.830;4.730;2023-04-21T06:14:00;7.30;99.90
27619;DHT22;15039;50.830;4.730;2023-04-21T06:16:26;7.40;99.90
27619;DHT22;15039;50.830;4.730;2023-04-21T06:18:52;7.40;99.90
27619;DHT22;15039;50.830;4.730;2023-04-21T06:21:18;7.40;99.90
27619;DHT22;15039;50.830;4.730;2023-04-21T06:23:43;7.40;99.90
27619;DHT22;15039;50.830;4.730;2023-04-21T06:26:12;7.40;99.90
27619;DHT22;15039;50.830;4.730;2023-04-21T06:28:38;7.60;99.90
27619;DHT22;15039;50.830;4.730;2023-04-21T06:31:04;7.60;99.90
27619;DHT22;15039;50.830;4.730;2023-04-21T06:33:30;7.60;99.90
27619;DHT22;15039;50.830;4.730;2023-04-21T06:35:55;7.70;99.90
27619;DHT22;15039;50.830;4.730;2023-04-21T06:38:21;7.70;99.90
27619;DHT22;15039;50.830;4.730;2023-04-21T06:40:47;7.80;99.90
27619;DHT22;15039;50.830;4.730;2023-04-21T06:43:19;8.00;99.90
27619;DHT22;15039;50.830;4.730;2023-04-21T06:45:47;8.10;99.90
27619;DHT22;15039;50.830;4.730;2023-04-21T06:48:18;8.30;99.90
27619;DHT22;15039;50.830;4.730;2023-04-21T06:50:47;8.20;99.90
27619;DHT22;15039;50.830;4.730;2023-04-21T06:53:13;8.20;99.90
27619;DHT22;15039;50.830;4.730;2023-04-21T06:55:39;8.40;99.90
27619;DHT22;15039;50.830;4.730;2023-04-21T06:58:04;8.40;99.90
27619;DHT22;15039;50.830;4.730;2023-04-21T07:00:30;8.40;99.90
27619;DHT22;15039;50.830;4.730;2023-04-21T07:10:53;8.80;99.90
27619;DHT22;15039;50.830;4.730;2023-04-21T07:13:38;8.80;99.90
27619;DHT22;15039;50.830;4.730;2023-04-21T07:16:04;8.80;99.90
27619;DHT22;15039;50.830;4.730;2023-04-21T07:18:30;9.10;99.90
27619;DHT22;15039;50.830;4.730;2023-04-21T07:20:59;9.20;99.90
27619;DHT22;15039;50.830;4.730;2023-04-21T07:23:33;9.30;99.90
27619;DHT22;15039;50.830;4.730;2023-04-21T07:26:04;9.40;99.90
27619;DHT22;15039;50.830;4.730;2023-04-21T07:28:39;9.40;99.90
27619;DHT22;15039;50.830;4.730;2023-04-21T07:31:12;9.50;99.90
27619;DHT22;15039;50.830;4.730;2023-04-21T07:33:38;9.60;99.90
27619;DHT22;15039;50.830;4.730;2023-04-21T07:36:07;9.60;99.90
27619;DHT22;15039;50.830;4.730;2023-04-21T07:38:36;9.80;99.90
27619;DHT22;15039;50.830;4.730;2023-04-21T07:41:06;9.90;99.90
27619;DHT22;15039;50.830;4.730;2023-04-21T07:43:36;10.10;99.90
27619;DHT22;15039;50.830;4.730;2023-04-21T07:46:03;10.00;99.90
27619;DHT22;15039;50.830;4.730;2023-04-21T07:48:32;10.00;99.90
27619;DHT22;15039;50.830;4.730;2023-04-21T07:51:02;10.10;99.90
27619;DHT22;15039;50.830;4.730;2023-04-21T07:53:28;10.10;99.90
27619;DHT22;15039;50.830;4.730;2023-04-21T07:55:56;10.20;99.90
27619;DHT22;15039;50.830;4.730;2023-04-21T07:58:23;10.30;99.90
27619;DHT22;15039;50.830;4.730;2023-04-21T08:00:49;10.30;99.90
27619;DHT22;15039;50.830;4.730;2023-04-21T08:03:23;10.30;99.90
27619;DHT22;15039;50.830;4.730;2023-04-21T08:05:52;10.20;99.90
27619;DHT22;15039;50.830;4.730;2023-04-21T08:08:18;10.30;99.90
27619;DHT22;15039;50.830;4.730;2023-04-21T08:10:58;10.40;99.90
27619;DHT22;15039;50.830;4.730;2023-04-21T08:13:27;10.50;99.90
27619;DHT22;15039;50.830;4.730;2023-04-21T08:15:53;10.60;99.90
27619;DHT22;15039;50.830;4.730;2023-04-21T08:18:20;10.70;99.90
27619;DHT22;15039;50.830;4.730;2023-04-21T08:20:46;10.70;99.90
27619;DHT22;15039;50.830;4.730;2023-04-21T08:23:14;10.70;99.90
27619;DHT22;15039;50.830;4.730;2023-04-21T08:25:42;10.70;99.90
27619;DHT22;15039;50.830;4.730;2023-04-21T08:28:07;10.80;99.90
27619;DHT22;15039;50.830;4.730;2023-04-21T08:30:34;10.90;99.90
27619;DHT22;15039;50.830;4.730;2023-04-21T08:33:07;11.00;99.90
27619;DHT22;15039;50.830;4.730;2023-04-21T08:35:39;11.10;99.90
27619;DHT22;15039;50.830;4.730;2023-04-21T08:38:08;11.20;99.90
27619;DHT22;15039;50.830;4.730;2023-04-21T08:40:37;11.10;99.90
27619;DHT22;15039;50.830;4.730;2023-04-21T08:43:05;11.20;99.90
27619;DHT22;15039;50.830;4.730;2023-04-21T08:45:33;11.30;99.90
27619;DHT22;15039;50.830;4.730;2023-04-21T08:48:01;11.40;99.90
27619;DHT22;15039;50.830;4.730;2023-04-21T08:50:29;11.60;99.90
27619;DHT22;15039;50.830;4.730;2023-04-21T08:52:55;11.60;99.90
27619;DHT22;15039;50.830;4.730;2023-04-21T08:55:27;11.70;99.90
27619;DHT22;15039;50.830;4.730;2023-04-21T08:57:53;11.70;99.90
27619;DHT22;15039;50.830;4.730;2023-04-21T09:00:19;11.70;99.90
27619;DHT22;15039;50.830;4.730;2023-04-21T09:02:59;11.80;99.90
27619;DHT22;15039;50.830;4.730;2023-04-21T09:05:26;12.00;99.90
27619;DHT22;15039;50.830;4.730;2023-04-21T09:08:13;12.00;99.90
27619;DHT22;15039;50.830;4.730;2023-04-21T09:10:50;12.10;99.90
27619;DHT22;15039;50.830;4.730;2023-04-21T09:13:20;12.10;99.90
27619;DHT22;15039;50.830;4.730;2023-04-21T09:15:49;12.20;99.90
27619;DHT22;15039;50.830;4.730;2023-04-21T09:18:19;12.30;99.90
27619;DHT22;15039;50.830;4.730;2023-04-21T09:20:48;12.20;99.90
27619;DHT22;15039;50.830;4.730;2023-04-21T09:23:14;12.20;99.90
27619;DHT22;15039;50.830;4.730;2023-04-21T09:25:44;12.10;99.90
27619;DHT22;15039;50.830;4.730;2023-04-21T09:28:12;12.20;99.90
27619;DHT22;15039;50.830;4.730;2023-04-21T09:30:40;12.30;99.90
27619;DHT22;15039;50.830;4.730;2023-04-21T09:33:06;12.40;99.90
27619;DHT22;15039;50.830;4.730;2023-04-21T09:35:36;12.50;99.90
27619;DHT22;15039;50.830;4.730;2023-04-21T09:38:05;12.50;99.90
27619;DHT22;15039;50.830;4.730;2023-04-21T09:40:34;12.50;99.90
27619;DHT22;15039;50.830;4.730;2023-04-21T09:43:00;12.60;99.90
27619;DHT22;15039;50.830;4.730;2023-04-21T09:45:27;12.80;99.90
27619;DHT22;15039;50.830;4.730;2023-04-21T09:47:56;12.90;99.90
27619;DHT22;15039;50.830;4.730;2023-04-21T09:50:23;13.00;99.90
27619;DHT22;15039;50.830;4.730;2023-04-21T09:52:51;12.90;99.90
27619;DHT22;15039;50.830;4.730;2023-04-21T09:55:19;13.00;99.90
27619;DHT22;15039;50.830;4.730;2023-04-21T09:57:47;13.10;99.90
27619;DHT22;15039;50.830;4.730;2023-04-21T10:00:14;13.20;99.90
27619;DHT22;15039;50.830;4.730;2023-04-21T10:02:43;13.30;99.90
27619;DHT22;15039;50.830;4.730;2023-04-21T10:05:12;13.40;99.90
27619;DHT22;15039;50.830;4.730;2023-04-21T10:07:38;13.40;99.90
27619;DHT22;15039;50.830;4.730;2023-04-21T10:10:07;13.50;99.90
27619;DHT22;15039;50.830;4.730;2023-04-21T10:12:33;13.60;99.90
27619;DHT22;15039;50.830;4.730;2023-04-21T10:15:03;13.70;99.90
27619;DHT22;15039;50.830;4.730;2023-04-21T10:17:33;13.70;99.90
27619;DHT22;15039;50.830;4.730;2023-04-21T10:20:05;13.90;99.90
27619;DHT22;15039;50.830;4.730;2023-04-21T10:22:33;13.90;99.90
27619;DHT22;15039;50.830;4.730;2023-04-21T10:25:01;14.10;99.90
27619;DHT22;15039;50.830;4.730;2023-04-21T10:30:00;14.30;99.90
27619;DHT22;15039;50.830;4.730;2023-04-21T10:32:46;14.50;99.90
27619;DHT22;15039;50.830;4.730;2023-04-21T10:35:14;14.60;99.90
27619;DHT22;15039;50.830;4.730;2023-04-21T10:37:42;14.50;99.90
27619;DHT22;15039;50.830;4.730;2023-04-21T10:40:34;14.50;99.90
27619;DHT22;15039;50.830;4.730;2023-04-21T10:43:03;14.50;99.90
27619;DHT22;15039;50.830;4.730;2023-04-21T10:45:29;14.60;99.90
27619;DHT22;15039;50.830;4.730;2023-04-21T10:47:59;14.80;99.90
27619;DHT22;15039;50.830;4.730;2023-04-21T10:50:30;14.80;99.90
27619;DHT22;15039;50.830;4.730;2023-04-21T10:53:08;14.90;99.90
27619;DHT22;15039;50.830;4.730;2023-04-21T10:55:34;14.90;99.90
27619;DHT22;15039;50.830;4.730;2023-04-21T10:58:05;14.90;99.90
27619;DHT22;15039;50.830;4.730;2023-04-21T11:00:34;14.80;99.90
27619;DHT22;15039;50.830;4.730;2023-04-21T11:03:04;14.60;99.90
27619;DHT22;15039;50.830;4.730;2023-04-21T11:05:40;14.60;99.90
27619;DHT22;15039;50.830;4.730;2023-04-21T11:08:08;14.80;99.90
27619;DHT22;15039;50.830;4.730;2023-04-21T11:11:01;15.00;99.90
27619;DHT22;15039;50.830;4.730;2023-04-21T11:13:27;15.20;99.90
27619;DHT22;15039;50.830;4.730;2023-04-21T11:16:05;15.30;99.90
27619;DHT22;15039;50.830;4.730;2023-04-21T11:18:42;15.40;99.90
27619;DHT22;15039;50.830;4.730;2023-04-21T11:21:16;15.40;99.90
27619;DHT22;15039;50.830;4.730;2023-04-21T11:23:51;15.60;99.90
27619;DHT22;15039;50.830;4.730;2023-04-21T11:26:17;15.80;99.90
27619;DHT22;15039;50.830;4.730;2023-04-21T11:28:48;15.90;99.90
27619;DHT22;15039;50.830;4.730;2023-04-21T11:31:17;16.00;99.90
27619;DHT22;15039;50.830;4.730;2023-04-21T11:33:45;16.00;99.90
27619;DHT22;15039;50.830;4.730;2023-04-21T11:36:10;16.00;99.90
27619;DHT22;15039;50.830;4.730;2023-04-21T11:38:39;16.10;99.90
27619;DHT22;15039;50.830;4.730;2023-04-21T11:41:05;16.30;99.90
27619;DHT22;15039;50.830;4.730;2023-04-21T11:43:37;16.40;99.90
27619;DHT22;15039;50.830;4.730;2023-04-21T11:46:16;16.40;99.90
27619;DHT22;15039;50.830;4.730;2023-04-21T11:49:06;16.50;99.90
27619;DHT22;15039;50.830;4.730;2023-04-21T11:51:39;16.70;99.90
27619;DHT22;15039;50.830;4.730;2023-04-21T11:54:10;16.60;99.90
27619;DHT22;15039;50.830;4.730;2023-04-21T11:56:42;16.80;99.90
27619;DHT22;15039;50.830;4.730;2023-04-21T11:59:11;16.90;99.90
27619;DHT22;15039;50.830;4.730;2023-04-21T12:04:22;17.30;99.90
27619;DHT22;15039;50.830;4.730;2023-04-21T12:06:57;17.50;99.90
27619;DHT22;15039;50.830;4.730;2023-04-21T12:09:24;17.70;99.90
27619;DHT22;15039;50.830;4.730;2023-04-21T12:11:52;17.70;99.90
27619;DHT22;15039;50.830;4.730;2023-04-21T12:14:19;17.70;99.90
27619;DHT22;15039;50.830;4.730;2023-04-21T12:16:57;17.70;99.90
27619;DHT22;15039;50.830;4.730;2023-04-21T12:19:43;17.50;99.90
27619;DHT22;15039;50.830;4.730;2023-04-21T12:22:10;17.60;99.90
27619;DHT22;15039;50.830;4.730;2023-04-21T12:24:37;17.50;99.90
27619;DHT22;15039;50.830;4.730;2023-04-21T12:27:03;17.50;99.90
27619;DHT22;15039;50.830;4.730;2023-04-21T12:29:30;17.60;99.90
27619;DHT22;15039;50.830;4.730;2023-04-21T12:31:55;17.60;99.90
27619;DHT22;15039;50.830;4.730;2023-04-21T12:34:21;17.70;99.90
27619;DHT22;15039;50.830;4.730;2023-04-21T12:36:47;17.90;99.90
27619;DHT22;15039;50.830;4.730;2023-04-21T12:39:12;18.00;99.90
27619;DHT22;15039;50.830;4.730;2023-04-21T12:41:39;18.00;99.90
27619;DHT22;15039;50.830;4.730;2023-04-21T12:44:05;18.00;99.90
27619;DHT22;15039;50.830;4.730;2023-04-21T12:46:31;18.00;99.90
27619;DHT22;15039;50.830;4.730;2023-04-21T12:48:57;17.80;99.90
27619;DHT22;15039;50.830;4.730;2023-04-21T12:51:22;17.60;99.90
27619;DHT22;15039;50.830;4.730;2023-04-21T12:53:48;17.50;99.90
27619;DHT22;15039;50.830;4.730;2023-04-21T12:56:14;17.40;99.90
27619;DHT22;15039;50.830;4.730;2023-04-21T12:58:40;17.50;99.90
27619;DHT22;15039;50.830;4.730;2023-04-21T13:01:06;17.70;99.90
27619;DHT22;15039;50.830;4.730;2023-04-21T13:03:32;17.80;99.90
27619;DHT22;15039;50.830;4.730;2023-04-21T13:05:58;17.90;99.90
27619;DHT22;15039;50.830;4.730;2023-04-21T13:08:24;18.00;99.90
27619;DHT22;15039;50.830;4.730;2023-04-21T13:10:49;18.00;99.90
27619;DHT22;15039;50.830;4.730;2023-04-21T13:13:15;17.90;99.90
27619;DHT22;15039;50.830;4.730;2023-04-21T13:15:41;18.10;99.90
27619;DHT22;15039;50.830;4.730;2023-04-21T13:18:07;18.10;99.60
27619;DHT22;15039;50.830;4.730;2023-04-21T13:20:32;18.30;99.90
27619;DHT22;15039;50.830;4.730;2023-04-21T13:22:58;18.30;99.90
27619;DHT22;15039;50.830;4.730;2023-04-21T13:25:24;18.30;99.90
27619;DHT22;15039;50.830;4.730;2023-04-21T13:27:49;18.20;99.90
27619;DHT22;15039;50.830;4.730;2023-04-21T13:30:17;18.40;99.90
27619;DHT22;15039;50.830;4.730;2023-04-21T13:32:43;18.60;99.90
27619;DHT22;15039;50.830;4.730;2023-04-21T13:35:09;18.80;99.90
27619;DHT22;15039;50.830;4.730;2023-04-21T13:37:40;18.90;99.90
27619;DHT22;15039;50.830;4.730;2023-04-21T13:40:07;19.00;99.90
27619;DHT22;15039;50.830;4.730;2023-04-21T13:42:38;18.90;99.20
27619;DHT22;15039;50.830;4.730;2023-04-21T13:45:04;18.80;99.30
27619;DHT22;15039;50.830;4.730;2023-04-21T13:47:33;18.80;99.50
27619;DHT22;15039;50.830;4.730;2023-04-21T13:50:00;18.70;99.70
27619;DHT22;15039;50.830;4.730;2023-04-21T13:52:26;18.70;99.90
27619;DHT22;15039;50.830;4.730;2023-04-21T13:54:52;18.70;99.60
27619;DHT22;15039;50.830;4.730;2023-04-21T13:57:19;18.50;99.90
27619;DHT22;15039;50.830;4.730;2023-04-21T13:59:45;18.50;99.90
27619;DHT22;15039;50.830;4.730;2023-04-21T14:02:11;18.50;99.90
27619;DHT22;15039;50.830;4.730;2023-04-21T14:04:36;18.60;99.90
27619;DHT22;15039;50.830;4.730;2023-04-21T14:07:03;18.70;99.90
27619;DHT22;15039;50.830;4.730;2023-04-21T14:09:29;18.80;99.90
27619;DHT22;15039;50.830;4.730;2023-04-21T14:11:55;18.80;99.90
27619;DHT22;15039;50.830;4.730;2023-04-21T14:14:22;18.70;99.90
27619;DHT22;15039;50.830;4.730;2023-04-21T14:16:47;18.70;99.70
27619;DHT22;15039;50.830;4.730;2023-04-21T14:19:14;18.90;99.80
27619;DHT22;15039;50.830;4.730;2023-04-21T14:21:40;19.10;99.10
27619;DHT22;15039;50.830;4.730;2023-04-21T14:24:06;19.20;98.90
27619;DHT22;15039;50.830;4.730;2023-04-21T14:26:32;19.20;98.50
27619;DHT22;15039;50.830;4.730;2023-04-21T14:28:58;19.30;99.60
27619;DHT22;15039;50.830;4.730;2023-04-21T14:31:25;19.00;98.80
27619;DHT22;15039;50.830;4.730;2023-04-21T14:33:50;18.80;99.20
27619;DHT22;15039;50.830;4.730;2023-04-21T14:36:16;18.90;99.80
27619;DHT22;15039;50.830;4.730;2023-04-21T14:38:42;19.10;98.80
27619;DHT22;15039;50.830;4.730;2023-04-21T14:41:07;19.20;98.90
27619;DHT22;15039;50.830;4.730;2023-04-21T14:43:33;19.30;98.70
27619;DHT22;15039;50.830;4.730;2023-04-21T14:45:59;19.10;98.60
27619;DHT22;15039;50.830;4.730;2023-04-21T14:48:25;18.90;99.20
27619;DHT22;15039;50.830;4.730;2023-04-21T14:50:51;18.80;99.40
27619;DHT22;15039;50.830;4.730;2023-04-21T14:53:17;18.70;99.40
27619;DHT22;15039;50.830;4.730;2023-04-21T14:55:43;18.60;99.60
27619;DHT22;15039;50.830;4.730;2023-04-21T14:58:08;18.70;99.60
27619;DHT22;15039;50.830;4.730;2023-04-21T15:00:34;18.70;99.30
27619;DHT22;15039;50.830;4.730;2023-04-21T15:03:01;18.90;99.70
27619;DHT22;15039;50.830;4.730;2023-04-21T15:05:26;18.80;99.70
27619;DHT22;15039;50.830;4.730;2023-04-21T15:07:52;18.80;99.90
27619;DHT22;15039;50.830;4.730;2023-04-21T15:10:18;19.00;99.90
27619;DHT22;15039;50.830;4.730;2023-04-21T15:12:43;19.00;99.30
27619;DHT22;15039;50.830;4.730;2023-04-21T15:15:10;18.90;99.60
27619;DHT22;15039;50.830;4.730;2023-04-21T15:17:39;18.70;99.90
27619;DHT22;15039;50.830;4.730;2023-04-21T15:20:05;18.60;99.90
27619;DHT22;15039;50.830;4.730;2023-04-21T15:22:31;18.50;99.90
27619;DHT22;15039;50.830;4.730;2023-04-21T15:24:57;18.40;99.90
27619;DHT22;15039;50.830;4.730;2023-04-21T15:27:23;18.40;99.90
27619;DHT22;15039;50.830;4.730;2023-04-21T15:29:48;18.30;99.90
27619;DHT22;15039;50.830;4.730;2023-04-21T15:32:14;18.50;99.90
27619;DHT22;15039;50.830;4.730;2023-04-21T15:34:39;18.60;99.90
27619;DHT22;15039;50.830;4.730;2023-04-21T15:37:05;18.70;99.90
27619;DHT22;15039;50.830;4.730;2023-04-21T15:39:31;18.70;99.90
27619;DHT22;15039;50.830;4.730;2023-04-21T15:41:57;18.70;99.90
27619;DHT22;15039;50.830;4.730;2023-04-21T15:44:23;18.70;99.90
27619;DHT22;15039;50.830;4.730;2023-04-21T15:46:49;18.80;99.90
27619;DHT22;15039;50.830;4.730;2023-04-21T15:49:15;18.80;99.90
27619;DHT22;15039;50.830;4.730;2023-04-21T15:51:41;19.00;99.90
27619;DHT22;15039;50.830;4.730;2023-04-21T15:54:06;19.10;99.90
27619;DHT22;15039;50.830;4.730;2023-04-21T15:56:33;19.10;97.20
27619;DHT22;15039;50.830;4.730;2023-04-21T15:58:59;18.70;96.40
27619;DHT22;15039;50.830;4.730;2023-04-21T16:01:24;18.30;97.20
27619;DHT22;15039;50.830;4.730;2023-04-21T16:03:50;17.80;98.30
27619;DHT22;15039;50.830;4.730;2023-04-21T16:06:16;17.50;98.80
27619;DHT22;15039;50.830;4.730;2023-04-21T16:08:42;17.30;99.50
27619;DHT22;15039;50.830;4.730;2023-04-21T16:11:07;17.30;99.60
27619;DHT22;15039;50.830;4.730;2023-04-21T16:13:33;17.30;99.90
27619;DHT22;15039;50.830;4.730;2023-04-21T16:15:59;17.20;99.70